Henrique Viana

Recruteur - Corinthians
1 Oct 2028
Dimanche
Processus

Personnalité

Adaptabilité (13) Ambition (6) Controverse (1) Loyauté (5) Pression (16) Professionnalisme (14) Sportivité (16) Tempérament (2)

Profil

Style d'entraînement Démocratique
Diplôme Continental C
Détermination 15
Gestion des joueurs 12
Motivation 8
Discipline 6
Satisfaction professionnelle
100%
Fatigue
0%
Rôle Recruteur
Salaire 47.4K p/s
Contrat 14.03.2030

Performance

Comportement Bon
Efficacité de l'entraînement
52%
Développement des joueurs
30%
Prévention des blessures
30%
Mise en place tactique
40%

Événements récents

A participé à une réunion de recrutement maintenant
A participé à une réunion de recrutement maintenant
A participé à une réunion de recrutement maintenant
A recommandé une cible de transfert maintenant
A recommandé une cible de transfert maintenant
A recommandé une cible de transfert 7j
A recommandé une cible de transfert 7j
A recommandé une cible de transfert 7j

Suivi en cours

91
Joueur Club Statut Capacité Confiance Observé Dernière observation Dernier vote
Kike Saverio Vitória Rapport prêt 96 / 104 62% 1 17.07.2028 -
Neco Williams Wrexham Actif 140 / 159 40% 1 11.07.2028 -
Moisés Caicedo Chelsea Actif 183 / 171 40% 1 11.07.2028 -
Nuno Moreira Vasco da Gama Actif 142 / 130 62% 1 10.07.2028 Approuver
Antoine Griezmann Cruzeiro Actif 137 / 152 62% 1 19.06.2028 Approuver
Abdoul Ouattara Port Vale Actif 126 / 149 40% 1 19.06.2028 -
Carlos Alcaraz Stoke City Actif 151 / 147 40% 1 19.06.2028 -
Andrey Santa Cruz Actif 109 / 109 62% 1 06.06.2028 Approuver
Matheus Cunha Manchester United Actif 155 / 172 40% 3 01.06.2028 -
Charles De Ketelaere Tottenham Actif 169 / 159 40% 1 01.06.2028 -
Giacomo Raspadori Atalanta Actif 142 / 158 40% 1 31.05.2028 -
Welington Southampton Actif 142 / 130 40% 1 31.05.2028 -
Lima Fluminense Actif 134 / 134 62% 1 02.12.2027 Approuver
Martín Zubimendi Arsenal Actif 170 / 160 40% 1 30.11.2027 -
Luciano Juba Bahia Actif 143 / 137 40% 1 30.11.2027 -
Taty Castellanos West Ham United Actif 158 / 134 40% 2 30.05.2027 -
Federico Chiesa Liverpool Actif 154 / 154 40% 2 29.05.2027 -
Christian Pulisic AC Milan Actif 171 / 162 40% 1 29.05.2027 -
Thiago Brentford Actif 133 / 154 40% 3 27.05.2027 -
Emanuel Emegha Chelsea Actif 129 / 146 40% 2 27.05.2027 -
Joe Gelhardt Hull City Actif 136 / 139 40% 2 26.05.2027 -
Gabriel Martinelli Arsenal Actif 150 / 161 40% 2 23.05.2027 -
Mohamed-Ali Cho Hull City Actif 152 / 124 40% 3 22.05.2027 -
Manu Koné AS Roma Actif 160 / 166 40% 3 19.05.2027 -
Ismaïla Sarr Crystal Palace Actif 164 / 158 40% 3 16.05.2027 -
Nicolas Jackson Aston Villa Actif 153 / 150 40% 5 15.05.2027 -
Isaiah Jones Luton Town Actif 115 / 113 40% 1 14.05.2027 -
Hugo Ekitiké Liverpool Actif 177 / 161 40% 3 13.05.2027 -
Kevin Fulham Actif 135 / 154 40% 1 12.05.2027 -
Derensili Sanches Fernandes Huddersfield Town Actif 140 / 121 40% 3 11.05.2027 -
Marcus Rashford Manchester United Actif 150 / 164 40% 3 10.05.2027 -
Dominic Solanke Tottenham Actif 161 / 153 40% 1 10.05.2027 -
Iliman N'Diaye Everton Actif 145 / 146 40% 2 09.05.2027 -
Noni Madueke Arsenal Actif 166 / 155 40% 1 09.05.2027 -
Xavi Simons Tottenham Actif 172 / 153 40% 2 07.05.2027 -
Rodrigo Muniz Fulham Actif 132 / 136 40% 1 28.04.2027 -
Brooke Norton-Cuffy Hull City Actif 123 / 142 40% 2 13.04.2027 -
Jackson Muleka Konyaspor Actif 130 / 129 40% 2 13.04.2027 -
Jason Knight Bristol City Actif 127 / 129 40% 2 11.04.2027 -
Steven Bergwijn Al-Ittihad Actif 156 / 156 40% 3 10.04.2027 -
Andrea Pinamonti Lazio Actif 147 / 131 40% 1 02.04.2027 -
Ilyas Ansah Hull City Actif 136 / 130 40% 1 01.04.2027 -
Oli McBurnie Hull City Actif 155 / 122 40% 1 29.03.2027 -
Gianluca Prestianni Benfica Actif 137 / 128 40% 2 27.03.2027 -
Che Adams Torino Actif 131 / 149 40% 1 24.03.2027 -
Lorenzo Colombo Genoa Actif 154 / 132 40% 1 21.03.2027 -
Enzo Barrenechea Benfica Actif 150 / 150 40% 5 20.03.2027 -
Rafik Guitane Estoril Praia Actif 117 / 126 40% 2 20.03.2027 -
Ricardo Horta Braga Actif 150 / 159 40% 2 18.03.2027 -
Santi García Gil Vicente Actif 134 / 135 40% 1 14.03.2027 -
Matheuzinho Vitória Actif 135 / 124 51% 1 01.12.2026 -
Sorriso Famalicao Actif 136 / 135 40% 4 27.11.2026 -
Zé Leite Moreirense Actif 106 / 130 40% 1 26.11.2026 -
Henrique Araújo Casa Pia Actif 114 / 119 40% 2 25.11.2026 -
Tamble Monteiro Rio Ave Actif 115 / 126 40% 3 23.11.2026 -
Samuel Lino Flamengo Actif 145 / 147 40% 1 21.11.2026 Plus d'infos
Jorge Aguirre Torreense Actif 110 / 103 40% 1 19.11.2026 -
Korede Osundina Casa Pia Actif 127 / 123 40% 1 19.11.2026 -
Pau Víctor Braga Actif 123 / 131 40% 1 18.11.2026 -
William Gomes Porto Actif 144 / 151 40% 1 16.11.2026 -
Alfonso Trezza Arouca Actif 121 / 136 40% 2 13.11.2026 -
Isidro Pitta Bragantino Actif 135 / 118 40% 1 13.11.2026 -
Jens Petter Hauge Bodo/Glimt Actif 151 / 143 40% 2 07.11.2026 -
Yoane Wissa Newcastle United Actif 126 / 150 40% 1 07.11.2026 -
Brais Méndez RC Lens Actif 160 / 148 40% 1 05.11.2026 -
Samuel Dahl Benfica Actif 135 / 134 40% 1 05.11.2026 -
Gustavo Silva Vitoria Guimaraes Actif 118 / 113 40% 2 04.11.2026 -
Leon Goretzka Aston Villa Actif 174 / 149 40% 1 01.11.2026 -
Vinícius Lopes Santa Clara Actif 101 / 124 40% 2 28.10.2026 -
Negueba Mirassol Actif 115 / 124 40% 1 26.10.2026 Plus d'infos
Wessam Abou Ali Columbus Crew Actif 132 / 141 40% 2 13.10.2026 -
Fredrik Aursnes Benfica Actif 142 / 162 40% 1 11.10.2026 -
Yanis Begraoui Estoril Praia Actif 133 / 135 40% 1 08.10.2026 -
Figueiredo Alverca Actif 136 / 133 40% 2 07.10.2026 -
Kévin Denkey FC Cincinnati Actif 125 / 114 40% 1 07.10.2026 -
Martín Ojeda Orlando City Actif 116 / 124 40% 1 05.10.2026 -
Tyrese Campbell Sheffield United Actif 135 / 111 40% 1 05.10.2026 -
Gabriel Silva Braga Actif 130 / 142 40% 1 29.09.2026 -
Ianis Stoica Estrela da Amadora Actif 121 / 102 40% 1 26.09.2026 -
Talles Magno New York City Actif 113 / 145 40% 1 24.09.2026 -
Roberto Fernández Braga Actif 129 / 152 40% 1 24.09.2026 -
Alejandro Zendejas Club America Actif 147 / 141 40% 1 20.09.2026 -
Marcel Ruiz Crystal Palace Actif 129 / 147 40% 1 18.09.2026 -
Ramiro Ruiz Rodríguez Atlético Tucumán Actif 123 / 122 40% 1 16.09.2026 -
Andreas Schjelderup Benfica Actif 137 / 144 40% 2 11.09.2026 -
Arthur Flamengo Actif 142 / 137 40% 1 09.09.2026 -
Cheikh Sabaly Vancouver Whitecaps Actif 117 / 117 40% 1 07.09.2026 -
Heorhii Sudakov Benfica Actif 123 / 138 40% 1 01.09.2026 -
Hwang In-Beom Porto Actif 157 / 149 40% 1 20.08.2026 -
Diogo Dalot Manchester United Actif 130 / 147 40% 1 19.08.2026 -
Zeno Debast Sporting CP Actif 119 / 143 40% 1 01.08.2026 -